Time;durP1;ratioP1;P1;durP2;ratioP2;P2;SDS_P1;SDS_P2;PMS_P1;PMS_P2;Temp;Humidity;BMP_temperature;BMP_pressure;BME280_temperature;BME280_humidity;BME280_pressure;Samples;Min_cycle;Max_cycle;Signal;HPM_P1;HPM_P2
2022/03/16 00:02:01;;;;;;;12.30;8.05;;;12.30;35.90;;;;;;5121146;28;20024;-66
2022/03/16 00:04:27;;;;;;;12.75;8.68;;;12.30;36.20;;;;;;5121086;28;20039;-66
2022/03/16 00:06:53;;;;;;;13.23;8.40;;;12.30;36.30;;;;;;5121037;28;20015;-67
2022/03/16 00:09:18;;;;;;;12.88;8.07;;;12.30;36.40;;;;;;5121058;28;20053;-67
2022/03/16 00:11:44;;;;;;;14.40;8.32;;;12.30;36.60;;;;;;5121014;28;20026;-67
2022/03/16 00:14:10;;;;;;;10.25;7.32;;;12.30;36.70;;;;;;5120951;28;20073;-67
2022/03/16 00:16:36;;;;;;;13.75;8.27;;;12.30;37.10;;;;;;5120908;28;20209;-66
2022/03/16 00:19:02;;;;;;;11.15;7.15;;;12.30;37.00;;;;;;5120941;28;20028;-66
2022/03/16 00:21:27;;;;;;;11.95;7.93;;;12.30;37.00;;;;;;5120845;28;20024;-67
2022/03/16 00:23:54;;;;;;;11.82;7.68;;;12.30;37.10;;;;;;5120760;28;20034;-66
2022/03/16 00:26:19;;;;;;;11.70;8.45;;;12.30;37.00;;;;;;5120230;28;20367;-67
2022/03/16 00:28:45;;;;;;;11.40;7.95;;;12.20;37.00;;;;;;5120793;28;20026;-67
2022/03/16 00:31:11;;;;;;;11.43;7.72;;;12.30;36.90;;;;;;5120657;28;20027;-67
2022/03/16 00:33:36;;;;;;;11.70;7.68;;;12.30;37.30;;;;;;5120692;28;20089;-67
2022/03/16 00:36:02;;;;;;;14.80;8.35;;;12.20;37.10;;;;;;5120617;28;20320;-66
2022/03/16 00:38:28;;;;;;;15.45;8.55;;;12.20;37.30;;;;;;5120565;28;20016;-66
2022/03/16 00:40:54;;;;;;;14.43;8.63;;;12.20;37.40;;;;;;5120633;28;20061;-67
2022/03/16 00:43:19;;;;;;;11.23;7.72;;;12.20;37.70;;;;;;5120452;28;20052;-66
2022/03/16 00:45:45;;;;;;;11.82;7.40;;;12.20;38.10;;;;;;5119208;28;20015;-65
2022/03/16 00:48:11;;;;;;;10.70;7.28;;;12.20;38.00;;;;;;5120532;28;20034;-66
2022/03/16 00:50:37;;;;;;;11.82;7.57;;;12.20;38.00;;;;;;5120519;28;20020;-65
2022/03/16 00:53:02;;;;;;;14.15;8.02;;;12.20;38.00;;;;;;5119229;28;20261;-66
2022/03/16 00:55:28;;;;;;;10.57;7.55;;;12.20;38.10;;;;;;5120469;28;20068;-66
2022/03/16 00:57:54;;;;;;;13.80;8.20;;;12.20;38.30;;;;;;5119127;28;20027;-66
2022/03/16 01:00:19;;;;;;;14.23;8.68;;;12.20;38.30;;;;;;5120447;28;20031;-66
2022/03/16 01:02:45;;;;;;;12.38;8.23;;;12.20;38.60;;;;;;5120387;28;20339;-68
2022/03/16 01:05:11;;;;;;;11.45;7.78;;;12.10;38.70;;;;;;5120358;28;20054;-66
2022/03/16 01:07:37;;;;;;;13.35;7.82;;;12.10;38.80;;;;;;5120357;28;20091;-67
2022/03/16 01:10:03;;;;;;;11.52;8.10;;;12.20;38.80;;;;;;5120330;28;20020;-66
2022/03/16 01:12:29;;;;;;;13.60;8.68;;;12.20;39.10;;;;;;5120253;28;20047;-66
2022/03/16 01:14:55;;;;;;;13.10;8.40;;;12.10;39.70;;;;;;5120220;28;20028;-65
2022/03/16 01:17:21;;;;;;;13.60;8.60;;;12.10;39.30;;;;;;5120313;28;20027;-66
2022/03/16 01:19:46;;;;;;;20.23;8.95;;;12.10;39.50;;;;;;5120254;28;20019;-67
2022/03/16 01:22:12;;;;;;;14.40;8.32;;;12.10;40.00;;;;;;5120207;28;20038;-66
2022/03/16 01:24:38;;;;;;;13.15;8.32;;;12.10;39.80;;;;;;5120090;28;20102;-68
2022/03/16 01:27:04;;;;;;;16.55;8.38;;;12.10;39.50;;;;;;5120138;28;20212;-66
2022/03/16 01:29:30;;;;;;;12.23;8.38;;;12.10;39.80;;;;;;5120389;28;20027;-67
2022/03/16 01:31:55;;;;;;;19.13;8.68;;;12.10;40.00;;;;;;5120150;28;20015;-66
2022/03/16 01:34:22;;;;;;;14.68;9.48;;;12.10;40.00;;;;;;5120142;28;20610;-65
2022/03/16 01:36:48;;;;;;;14.60;8.65;;;12.00;39.90;;;;;;5120083;28;20389;-65
2022/03/16 01:39:14;;;;;;;16.95;9.45;;;12.00;40.10;;;;;;5123529;28;20024;-66
2022/03/16 01:41:42;;;;;;;14.40;9.57;;;12.00;40.40;;;;;;5123931;28;20028;-66
2022/03/16 01:44:09;;;;;;;15.27;9.27;;;12.00;40.20;;;;;;5123626;28;20115;-68
2022/03/16 01:46:35;;;;;;;16.35;9.48;;;12.00;40.20;;;;;;5123901;28;20070;-68
2022/03/16 01:49:00;;;;;;;16.45;9.80;;;12.00;40.40;;;;;;5123735;28;20315;-66
2022/03/16 01:51:27;;;;;;;14.45;8.68;;;12.00;40.50;;;;;;5123945;28;20185;-67
2022/03/16 01:53:53;;;;;;;17.58;9.95;;;12.00;40.60;;;;;;5123673;28;20331;-66
2022/03/16 01:56:19;;;;;;;17.50;9.95;;;11.90;41.40;;;;;;5123664;28;20072;-66
2022/03/16 01:58:46;;;;;;;18.10;10.07;;;11.90;42.00;;;;;;5123609;28;20030;-65
2022/03/16 02:01:13;;;;;;;18.15;9.18;;;11.90;42.90;;;;;;5123595;28;20023;-66
2022/03/16 02:03:39;;;;;;;15.00;8.98;;;11.80;43.80;;;;;;5123691;28;20031;-67
2022/03/16 02:06:05;;;;;;;15.50;10.55;;;11.80;44.40;;;;;;5123513;28;20015;-66
2022/03/16 02:08:32;;;;;;;13.95;9.15;;;11.80;44.80;;;;;;5123376;28;20030;-66
2022/03/16 02:10:58;;;;;;;19.45;9.88;;;11.70;44.90;;;;;;5123403;28;20019;-66
2022/03/16 02:13:27;;;;;;;15.93;10.38;;;11.80;44.80;;;;;;5122337;28;20267;-66
2022/03/16 02:15:52;;;;;;;14.10;9.07;;;11.70;45.80;;;;;;5123285;28;20072;-66
2022/03/16 02:18:18;;;;;;;15.50;9.65;;;11.70;46.60;;;;;;5123220;28;20095;-66
2022/03/16 02:20:50;;;;;;;16.27;9.45;;;11.70;47.20;;;;;;5123153;28;20031;-66
2022/03/16 02:23:16;;;;;;;15.40;9.88;;;11.70;47.30;;;;;;5123253;28;20346;-67
2022/03/16 02:25:53;;;;;;;13.13;8.85;;;11.60;47.80;;;;;;5121746;28;20031;-66
2022/03/16 02:28:20;;;;;;;21.58;10.18;;;11.60;48.30;;;;;;5121830;28;20077;-66
2022/03/16 02:30:46;;;;;;;18.90;10.20;;;11.60;48.80;;;;;;5123099;27;20020;-65
2022/03/16 02:33:11;;;;;;;14.55;9.50;;;11.60;49.00;;;;;;5123031;28;20545;-67
2022/03/16 02:35:38;;;;;;;15.57;9.95;;;11.50;49.90;;;;;;5122914;28;20024;-66
2022/03/16 02:38:04;;;;;;;14.57;10.00;;;11.50;49.40;;;;;;5122891;28;20047;-67
2022/03/16 02:40:30;;;;;;;19.30;9.93;;;11.50;50.30;;;;;;5122871;28;20331;-65
2022/03/16 02:42:56;;;;;;;19.38;9.60;;;11.50;50.70;;;;;;5122620;28;20027;-66
2022/03/16 02:45:21;;;;;;;16.33;10.18;;;11.50;51.20;;;;;;5122746;28;20553;-65
2022/03/16 02:47:48;;;;;;;17.10;9.90;;;11.50;51.80;;;;;;5122734;28;20050;-66
2022/03/16 02:50:16;;;;;;;16.98;9.82;;;11.50;51.90;;;;;;5122360;28;20219;-65
2022/03/16 02:52:43;;;;;;;16.98;10.35;;;11.40;52.10;;;;;;5122628;28;20030;-65
2022/03/16 02:55:09;;;;;;;19.17;9.63;;;11.50;52.60;;;;;;5122603;28;20043;-66
2022/03/16 02:57:36;;;;;;;15.38;10.25;;;11.40;52.50;;;;;;5122193;28;20027;-66
2022/03/16 03:00:08;;;;;;;13.82;9.20;;;11.40;52.80;;;;;;5122521;27;20624;-66
2022/03/16 03:02:34;;;;;;;16.33;9.65;;;11.40;52.70;;;;;;5122469;28;20023;-70
2022/03/16 03:04:59;;;;;;;18.35;10.32;;;11.40;53.30;;;;;;5122268;28;20028;-67
2022/03/16 03:07:25;;;;;;;17.02;10.60;;;11.40;53.10;;;;;;5122318;28;20051;-68
2022/03/16 03:09:51;;;;;;;17.45;10.95;;;11.40;53.60;;;;;;5122265;28;20026;-69
2022/03/16 03:12:17;;;;;;;15.05;10.32;;;11.40;54.10;;;;;;5122231;28;20019;-69
2022/03/16 03:14:43;;;;;;;14.45;9.57;;;11.40;54.20;;;;;;5122212;28;20023;-68
2022/03/16 03:17:10;;;;;;;19.67;10.07;;;11.50;52.20;;;;;;5120879;28;20334;-68
2022/03/16 03:19:36;;;;;;;16.40;9.60;;;11.50;50.10;;;;;;5120854;28;20020;-68
2022/03/16 03:22:02;;;;;;;15.98;9.38;;;11.60;49.00;;;;;;5122083;28;20023;-67
2022/03/16 03:24:27;;;;;;;16.77;9.63;;;11.60;48.90;;;;;;5121970;28;20032;-67
2022/03/16 03:26:53;;;;;;;16.05;9.25;;;11.70;48.70;;;;;;5121931;28;20061;-69
2022/03/16 03:29:19;;;;;;;13.48;8.68;;;11.70;47.90;;;;;;5121875;28;20015;-68
2022/03/16 03:31:45;;;;;;;13.75;9.05;;;11.70;48.40;;;;;;5121854;28;20030;-68
2022/03/16 03:34:11;;;;;;;14.25;9.73;;;11.60;49.50;;;;;;5121889;27;20043;-69
2022/03/16 03:36:37;;;;;;;17.95;10.80;;;11.50;50.20;;;;;;5121707;28;20027;-69
2022/03/16 03:39:03;;;;;;;14.85;10.52;;;11.50;50.60;;;;;;5121761;28;20031;-67
2022/03/16 03:41:29;;;;;;;15.95;10.93;;;11.50;51.70;;;;;;5121632;28;20069;-68
2022/03/16 03:43:55;;;;;;;16.92;10.05;;;11.40;52.50;;;;;;5121426;28;20274;-68
2022/03/16 03:46:21;;;;;;;17.30;9.07;;;11.50;53.00;;;;;;5121587;28;20625;-69
2022/03/16 03:48:46;;;;;;;14.27;9.40;;;11.40;53.30;;;;;;5121473;28;20032;-69
2022/03/16 03:51:12;;;;;;;15.65;9.13;;;11.40;53.60;;;;;;5121447;28;20024;-68
2022/03/16 03:53:38;;;;;;;13.23;9.25;;;11.40;54.10;;;;;;5121411;28;20019;-68
2022/03/16 03:56:04;;;;;;;15.23;9.30;;;11.40;54.40;;;;;;5121413;28;20339;-68
2022/03/16 03:58:30;;;;;;;14.13;9.85;;;11.40;54.40;;;;;;5121345;28;20030;-67
2022/03/16 04:00:57;;;;;;;15.32;9.38;;;11.40;54.40;;;;;;5120521;27;20020;-68
2022/03/16 04:03:23;;;;;;;14.57;9.00;;;11.40;53.70;;;;;;5121241;28;20200;-69
2022/03/16 04:05:49;;;;;;;11.75;8.30;;;11.40;53.70;;;;;;5121174;28;20528;-68
2022/03/16 04:08:15;;;;;;;12.55;9.50;;;11.40;54.30;;;;;;5121222;28;20076;-68
2022/03/16 04:10:40;;;;;;;15.30;8.35;;;11.40;54.60;;;;;;5121070;28;20015;-68
2022/03/16 04:13:06;;;;;;;11.57;8.55;;;11.40;54.70;;;;;;5121025;28;20030;-67
2022/03/16 04:15:32;;;;;;;16.35;8.65;;;11.40;54.50;;;;;;5121077;28;20047;-67
2022/03/16 04:17:59;;;;;;;13.68;8.23;;;11.40;54.60;;;;;;5121058;28;20030;-68
2022/03/16 04:20:25;;;;;;;13.32;8.77;;;11.40;54.50;;;;;;5120971;28;20031;-67
2022/03/16 04:22:51;;;;;;;12.60;8.23;;;11.40;55.00;;;;;;5120994;28;20016;-68
2022/03/16 04:25:17;;;;;;;12.18;8.70;;;11.40;54.80;;;;;;5121187;28;20028;-68
2022/03/16 04:27:42;;;;;;;13.77;9.05;;;11.40;54.60;;;;;;5120849;28;20050;-68
2022/03/16 04:30:09;;;;;;;11.27;8.43;;;11.40;55.00;;;;;;5120885;28;20223;-67
2022/03/16 04:32:34;;;;;;;13.35;8.57;;;11.40;55.10;;;;;;5120778;28;20024;-67
2022/03/16 04:35:00;;;;;;;13.55;10.07;;;11.40;55.00;;;;;;5120809;28;20069;-68
2022/03/16 04:37:26;;;;;;;14.30;9.10;;;11.40;55.10;;;;;;5120722;28;20035;-68
2022/03/16 04:39:51;;;;;;;12.00;8.88;;;11.40;53.70;;;;;;5120787;28;20035;-69
2022/03/16 04:42:17;;;;;;;14.10;10.15;;;11.40;52.90;;;;;;5120679;28;20027;-68
2022/03/16 04:44:43;;;;;;;14.32;9.50;;;11.40;53.50;;;;;;5120428;28;20050;-68
2022/03/16 04:47:08;;;;;;;14.38;10.13;;;11.40;53.50;;;;;;5120708;28;20024;-68
2022/03/16 04:49:34;;;;;;;15.65;10.27;;;11.50;52.90;;;;;;5120618;28;20024;-69
2022/03/16 04:52:00;;;;;;;13.23;10.23;;;11.40;51.70;;;;;;5120504;28;20023;-69
2022/03/16 04:54:25;;;;;;;17.30;9.85;;;11.40;52.00;;;;;;5120596;28;20027;-68
2022/03/16 04:56:51;;;;;;;15.20;10.05;;;11.40;51.90;;;;;;5120600;28;20565;-67
2022/03/16 04:59:17;;;;;;;14.90;9.85;;;11.40;51.30;;;;;;5120480;28;20094;-69
2022/03/16 05:01:43;;;;;;;14.32;9.85;;;11.40;51.10;;;;;;5120456;28;20019;-70
2022/03/16 05:04:09;;;;;;;16.15;10.23;;;11.40;51.30;;;;;;5120392;28;20319;-68
2022/03/16 05:06:36;;;;;;;16.23;10.60;;;11.30;51.50;;;;;;5120452;28;20031;-67
2022/03/16 05:09:01;;;;;;;16.80;10.35;;;11.40;51.50;;;;;;5120493;28;20028;-68
2022/03/16 05:11:27;;;;;;;14.38;9.48;;;11.30;51.40;;;;;;5120990;28;20024;-68
2022/03/16 05:13:53;;;;;;;14.43;10.07;;;11.40;51.60;;;;;;5124557;28;20078;-68
2022/03/16 05:16:18;;;;;;;15.70;10.27;;;11.40;51.80;;;;;;5124592;28;20034;-68
2022/03/16 05:18:45;;;;;;;18.50;10.13;;;11.40;51.90;;;;;;5124474;28;20232;-69
2022/03/16 05:21:12;;;;;;;14.82;10.50;;;11.40;53.00;;;;;;5124776;28;20023;-68
2022/03/16 05:23:40;;;;;;;14.95;10.15;;;11.30;53.90;;;;;;5124333;28;20046;-68
2022/03/16 05:26:06;;;;;;;16.77;10.82;;;11.30;55.00;;;;;;5124410;28;20012;-68
2022/03/16 05:28:32;;;;;;;16.50;9.35;;;11.40;54.70;;;;;;5123024;28;20247;-68
2022/03/16 05:30:57;;;;;;;20.77;11.25;;;11.30;53.40;;;;;;5124278;27;20020;-68
2022/03/16 05:33:24;;;;;;;15.95;10.45;;;11.30;53.70;;;;;;5124185;28;20020;-67
2022/03/16 05:35:50;;;;;;;18.98;10.55;;;11.30;53.90;;;;;;5124184;28;20027;-68
2022/03/16 05:38:17;;;;;;;16.73;10.25;;;11.30;54.50;;;;;;5124051;28;20023;-66
2022/03/16 05:40:43;;;;;;;16.30;10.65;;;11.20;55.50;;;;;;5124071;28;20039;-66
2022/03/16 05:43:10;;;;;;;18.88;11.27;;;11.20;55.80;;;;;;5123939;28;20035;-68
2022/03/16 05:45:37;;;;;;;15.93;10.57;;;11.20;56.00;;;;;;5123947;28;20505;-67
2022/03/16 05:48:03;;;;;;;14.07;10.00;;;11.20;56.40;;;;;;5123951;28;20030;-67
2022/03/16 05:50:29;;;;;;;19.00;10.88;;;11.20;56.80;;;;;;5123842;27;20020;-68
2022/03/16 05:52:59;;;;;;;17.38;11.05;;;11.20;56.80;;;;;;5123901;28;20232;-67
2022/03/16 05:55:25;;;;;;;22.13;12.63;;;11.10;56.60;;;;;;5123907;28;20118;-68
2022/03/16 05:57:51;;;;;;;26.95;14.63;;;11.10;56.40;;;;;;5123821;28;20019;-68
2022/03/16 06:00:20;;;;;;;20.60;12.40;;;11.10;56.30;;;;;;5123706;28;20380;-67
2022/03/16 06:02:46;;;;;;;;;;;11.20;56.80;;;;;;5124133;28;20034;-68
2022/03/16 06:05:12;;;;;;;19.58;11.25;;;11.20;57.00;;;;;;5123637;28;19946;-68
2022/03/16 06:07:38;;;;;;;14.68;10.80;;;11.20;57.10;;;;;;5123619;27;20079;-68
2022/03/16 06:10:06;;;;;;;21.83;10.90;;;11.20;57.00;;;;;;5123517;28;20019;-68
2022/03/16 06:12:32;;;;;;;19.52;11.52;;;11.20;56.70;;;;;;5123572;28;20398;-66
2022/03/16 06:14:58;;;;;;;16.52;10.70;;;11.20;55.90;;;;;;5123570;28;20028;-68
2022/03/16 06:17:23;;;;;;;16.30;11.20;;;11.30;56.10;;;;;;5123513;28;20031;-68
2022/03/16 06:19:49;;;;;;;15.93;10.45;;;11.20;56.10;;;;;;5123360;28;20034;-67
2022/03/16 06:22:15;;;;;;;18.30;11.05;;;11.20;56.90;;;;;;5123386;28;20395;-68
2022/03/16 06:24:40;;;;;;;18.42;11.30;;;11.20;57.00;;;;;;5122279;28;20023;-68
2022/03/16 06:27:06;;;;;;;19.25;11.68;;;11.20;57.10;;;;;;5123194;28;20024;-66
2022/03/16 06:29:32;;;;;;;18.98;11.10;;;11.20;56.40;;;;;;5123179;28;20038;-67
2022/03/16 06:31:58;;;;;;;18.15;11.50;;;11.20;56.70;;;;;;5123137;28;20035;-68
2022/03/16 06:34:25;;;;;;;18.42;11.90;;;11.20;57.40;;;;;;5123068;28;20086;-67
2022/03/16 06:36:51;;;;;;;18.52;10.80;;;11.20;57.90;;;;;;5123097;27;20027;-67
2022/03/16 06:39:16;;;;;;;14.38;10.55;;;11.10;58.70;;;;;;5122950;28;20426;-67
2022/03/16 06:41:43;;;;;;;18.52;10.88;;;11.10;58.90;;;;;;5122943;28;20027;-67
2022/03/16 06:44:09;;;;;;;17.58;10.90;;;11.20;59.10;;;;;;5122649;28;20081;-67
2022/03/16 06:46:37;;;;;;;14.77;10.65;;;11.10;59.40;;;;;;5122867;28;20023;-68
2022/03/16 06:49:03;;;;;;;16.27;10.75;;;11.10;59.60;;;;;;5122830;28;20219;-68
2022/03/16 06:51:29;;;;;;;14.15;10.10;;;11.10;59.80;;;;;;5122800;28;20030;-68
2022/03/16 06:53:55;;;;;;;17.02;10.35;;;11.10;60.00;;;;;;5122659;28;20046;-67
2022/03/16 06:56:21;;;;;;;13.57;10.15;;;11.10;60.30;;;;;;5122723;28;20015;-67
2022/03/16 06:58:46;;;;;;;17.60;10.25;;;11.20;60.30;;;;;;5122525;28;20024;-67
2022/03/16 07:01:13;;;;;;;18.67;10.77;;;11.20;60.30;;;;;;5122513;28;20061;-67
2022/03/16 07:03:38;;;;;;;15.73;10.60;;;11.20;60.60;;;;;;5122537;28;20234;-68
2022/03/16 07:06:04;;;;;;;21.02;10.75;;;11.20;60.30;;;;;;5122361;28;20031;-68
2022/03/16 07:08:30;;;;;;;18.67;11.20;;;11.20;59.90;;;;;;5122406;28;20350;-66
2022/03/16 07:10:55;;;;;;;16.10;11.43;;;11.20;59.80;;;;;;5122368;28;20302;-68
2022/03/16 07:13:21;;;;;;;17.67;11.25;;;11.10;59.60;;;;;;5122290;28;20016;-67
2022/03/16 07:15:47;;;;;;;14.82;11.05;;;11.10;59.70;;;;;;5122258;28;20027;-68
2022/03/16 07:18:13;;;;;;;20.80;12.15;;;11.10;59.90;;;;;;5122200;28;20084;-68
2022/03/16 07:20:39;;;;;;;15.65;11.32;;;11.10;59.80;;;;;;5122188;28;20034;-67
2022/03/16 07:23:09;;;;;;;22.98;12.57;;;11.10;60.50;;;;;;5122167;28;20132;-67
2022/03/16 07:25:37;;;;;;;21.27;12.55;;;11.10;59.80;;;;;;5121978;28;20060;-68
2022/03/16 07:28:04;;;;;;;21.70;13.25;;;11.20;59.80;;;;;;5121993;28;20015;-67
2022/03/16 07:30:30;;;;;;;20.98;13.18;;;11.10;60.30;;;;;;5121969;28;20094;-65
2022/03/16 07:32:56;;;;;;;17.25;11.23;;;11.20;60.60;;;;;;5121831;28;20024;-68
2022/03/16 07:35:26;;;;;;;19.23;12.40;;;11.20;59.90;;;;;;5121810;28;20027;-66
2022/03/16 07:37:56;;;;;;;21.13;11.50;;;11.20;60.40;;;;;;5121853;28;20266;-65
2022/03/16 07:40:23;;;;;;;18.77;11.77;;;11.10;59.60;;;;;;5122011;28;20027;-65
2022/03/16 07:42:50;;;;;;;20.45;12.43;;;11.20;60.10;;;;;;5121738;28;20024;-67
2022/03/16 07:45:18;;;;;;;19.50;11.55;;;11.10;60.40;;;;;;5121491;28;20050;-67
2022/03/16 07:47:48;;;;;;;18.10;11.70;;;11.20;59.10;;;;;;5121646;28;20016;-68
2022/03/16 07:50:15;;;;;;;18.48;12.35;;;11.20;60.00;;;;;;5121553;28;20027;-66
2022/03/16 07:52:41;;;;;;;23.15;12.20;;;11.20;59.90;;;;;;5120284;28;20051;-67
2022/03/16 07:55:08;;;;;;;28.20;12.63;;;11.20;60.00;;;;;;5121468;28;20031;-66
2022/03/16 07:57:34;;;;;;;19.60;11.40;;;11.20;60.30;;;;;;5121457;28;20083;-68
2022/03/16 08:00:01;;;;;;;21.92;11.77;;;11.20;60.90;;;;;;5121382;28;20046;-66
2022/03/16 08:02:27;;;;;;;21.30;12.70;;;11.20;60.90;;;;;;5121312;28;20256;-65
2022/03/16 08:04:53;;;;;;;23.90;11.32;;;11.20;61.00;;;;;;5121187;28;20316;-66
2022/03/16 08:07:19;;;;;;;20.27;12.32;;;11.20;61.50;;;;;;5121202;28;20068;-67
2022/03/16 08:09:44;;;;;;;17.27;12.63;;;11.20;61.00;;;;;;5121213;28;20220;-66
2022/03/16 08:12:10;;;;;;;20.45;12.90;;;11.20;61.30;;;;;;5121154;28;20015;-66
2022/03/16 08:14:36;;;;;;;18.98;13.15;;;11.20;61.50;;;;;;5121048;28;20054;-66
2022/03/16 08:17:01;;;;;;;22.10;14.38;;;11.10;61.10;;;;;;5121111;28;20038;-66
2022/03/16 08:19:27;;;;;;;16.73;11.98;;;11.10;61.80;;;;;;5121034;28;20024;-67
2022/03/16 08:21:53;;;;;;;23.13;13.82;;;11.20;61.90;;;;;;5120930;28;20016;-67
2022/03/16 08:24:18;;;;;;;22.63;13.20;;;11.20;60.90;;;;;;5120865;28;20027;-67
2022/03/16 08:26:44;;;;;;;20.20;11.75;;;11.20;61.00;;;;;;5119617;28;20095;-67
2022/03/16 08:29:10;;;;;;;19.40;12.57;;;11.10;60.80;;;;;;5120814;28;20023;-66
2022/03/16 08:31:35;;;;;;;18.13;13.02;;;11.10;61.10;;;;;;5120739;28;20252;-67
2022/03/16 08:34:02;;;;;;;22.13;13.88;;;11.10;60.80;;;;;;5120723;28;20020;-66
2022/03/16 08:36:28;;;;;;;22.45;13.98;;;11.10;61.00;;;;;;5120754;28;20031;-66
2022/03/16 08:38:54;;;;;;;16.65;12.88;;;11.10;61.40;;;;;;5120779;28;20400;-67
2022/03/16 08:41:20;;;;;;;19.77;12.52;;;11.20;61.10;;;;;;5120722;28;20023;-66
2022/03/16 08:43:46;;;;;;;16.70;12.80;;;11.10;61.00;;;;;;5120441;28;20039;-68
2022/03/16 08:46:12;;;;;;;20.60;13.23;;;11.10;60.70;;;;;;5120232;28;20478;-67
2022/03/16 08:48:38;;;;;;;21.52;12.75;;;11.10;61.10;;;;;;5120611;28;20027;-67
2022/03/16 08:51:06;;;;;;;19.90;12.23;;;11.10;60.60;;;;;;5120577;28;20043;-67
2022/03/16 08:53:32;;;;;;;19.27;12.57;;;11.10;60.50;;;;;;5120637;28;20023;-66
2022/03/16 08:55:58;;;;;;;22.00;12.38;;;11.10;60.80;;;;;;5120541;28;20039;-67
2022/03/16 08:58:23;;;;;;;22.95;13.95;;;11.10;61.00;;;;;;5120498;28;20022;-67
2022/03/16 09:00:49;;;;;;;21.85;12.48;;;11.00;61.10;;;;;;5120514;28;20039;-66
2022/03/16 09:03:15;;;;;;;23.75;13.82;;;11.00;60.90;;;;;;5120443;28;20023;-67
2022/03/16 09:05:40;;;;;;;18.25;12.55;;;11.00;60.90;;;;;;5120324;28;20031;-67
2022/03/16 09:08:06;;;;;;;20.58;12.85;;;11.10;60.80;;;;;;5120356;28;20028;-65
2022/03/16 09:10:32;;;;;;;22.35;12.85;;;11.10;60.00;;;;;;5119104;28;20023;-67
2022/03/16 09:12:58;;;;;;;24.67;14.57;;;11.00;60.40;;;;;;5120302;28;20026;-67
2022/03/16 09:15:23;;;;;;;19.25;12.02;;;11.00;60.50;;;;;;5120353;28;20102;-67
2022/03/16 09:17:49;;;;;;;29.75;13.85;;;11.00;60.20;;;;;;5120284;28;20342;-66
2022/03/16 09:20:15;;;;;;;22.73;12.20;;;11.00;60.40;;;;;;5118971;28;20069;-66
2022/03/16 09:22:40;;;;;;;18.63;12.25;;;10.90;60.70;;;;;;5120209;28;20020;-68
2022/03/16 09:25:07;;;;;;;19.75;12.77;;;10.90;60.60;;;;;;5120190;28;20035;-66
2022/03/16 09:27:37;;;;;;;21.48;12.77;;;10.90;60.80;;;;;;5120250;28;20015;-66
2022/03/16 09:30:04;;;;;;;18.52;12.35;;;10.90;60.80;;;;;;5120204;28;20115;-66
2022/03/16 09:32:30;;;;;;;23.38;13.10;;;10.90;60.60;;;;;;5120131;28;20201;-66
2022/03/16 09:34:56;;;;;;;20.52;12.57;;;10.90;61.30;;;;;;5120121;28;20027;-65
2022/03/16 09:37:22;;;;;;;19.38;11.93;;;10.90;61.40;;;;;;5120181;28;20092;-67
2022/03/16 09:39:47;;;;;;;20.10;12.75;;;10.90;61.60;;;;;;5120082;28;20024;-66
2022/03/16 09:42:13;;;;;;;21.52;12.93;;;10.90;61.30;;;;;;5120048;28;20019;-66
2022/03/16 09:44:39;;;;;;;18.17;12.02;;;11.00;61.00;;;;;;5119870;28;20115;-66
2022/03/16 09:47:09;;;;;;;18.83;12.50;;;11.00;61.20;;;;;;5120066;28;20031;-66
2022/03/16 09:49:37;;;;;;;20.25;12.75;;;11.00;61.10;;;;;;5120059;28;20058;-67
2022/03/16 09:52:03;;;;;;;19.88;13.18;;;11.00;60.50;;;;;;5119995;28;20208;-69
2022/03/16 09:54:29;;;;;;;17.88;11.85;;;10.90;60.90;;;;;;5119979;28;20028;-67
2022/03/16 09:56:56;;;;;;;21.25;14.23;;;10.90;61.30;;;;;;5120005;28;20086;-66
2022/03/16 09:59:22;;;;;;;20.50;12.38;;;10.90;61.40;;;;;;5120614;28;20035;-66
2022/03/16 10:01:47;;;;;;;20.98;13.32;;;10.80;61.50;;;;;;5123718;28;20342;-66
2022/03/16 10:04:28;;;;;;;18.73;12.73;;;10.90;61.70;;;;;;5123476;28;20015;-66
2022/03/16 10:06:55;;;;;;;18.75;12.55;;;10.90;61.40;;;;;;5123566;28;20026;-67
2022/03/16 10:15:06;;;;;;;17.73;12.57;;;10.90;60.90;;;;;;5123380;28;20373;-66
2022/03/16 10:17:44;;;;;;;18.08;12.75;;;10.90;61.30;;;;;;5123385;28;20147;-66
2022/03/16 10:20:26;;;;;;;16.75;12.70;;;10.90;61.50;;;;;;5123317;28;20103;-65
2022/03/16 10:23:16;;;;;;;21.75;12.48;;;10.90;61.30;;;;;;5123307;28;20023;-67
2022/03/16 10:25:45;;;;;;;16.88;12.55;;;10.90;61.80;;;;;;5123096;28;20031;-65
2022/03/16 10:28:16;;;;;;;20.90;12.00;;;10.90;61.20;;;;;;5123102;28;20034;-65
2022/03/16 10:30:50;;;;;;;20.75;12.55;;;10.90;61.20;;;;;;5123115;28;20031;-65
2022/03/16 10:33:16;;;;;;;25.40;13.35;;;10.90;61.50;;;;;;5123030;28;20018;-67
2022/03/16 10:36:03;;;;;;;19.55;12.98;;;10.90;61.50;;;;;;5121775;28;20034;-66
2022/03/16 10:38:30;;;;;;;20.15;13.18;;;10.90;61.20;;;;;;5122965;28;20036;-66
2022/03/16 10:41:11;;;;;;;18.75;13.55;;;10.90;61.50;;;;;;5122870;28;20537;-66
2022/03/16 10:46:38;;;;;;;17.42;13.40;;;10.90;61.30;;;;;;5122769;28;20100;-66
2022/03/16 10:49:09;;;;;;;23.85;14.25;;;10.90;61.70;;;;;;5122776;28;20022;-67
2022/03/16 10:51:35;;;;;;;19.17;13.32;;;10.90;61.80;;;;;;5122725;28;20028;-66
2022/03/16 10:54:03;;;;;;;19.90;14.00;;;11.00;61.20;;;;;;5121310;28;20088;-66
2022/03/16 10:56:30;;;;;;;21.57;13.03;;;10.90;61.00;;;;;;5122621;28;20031;-66
2022/03/16 10:58:57;;;;;;;21.25;13.40;;;11.00;61.40;;;;;;5122509;28;20047;-66
2022/03/16 11:01:25;;;;;;;19.73;14.07;;;11.00;61.20;;;;;;5122484;28;20300;-67
2022/03/16 11:03:53;;;;;;;19.52;13.55;;;11.00;61.30;;;;;;5122413;28;20377;-66
2022/03/16 11:06:22;;;;;;;19.77;13.65;;;11.00;61.10;;;;;;5122399;28;20051;-68
2022/03/16 11:08:53;;;;;;;23.02;13.95;;;11.00;61.10;;;;;;5122324;28;20030;-67
2022/03/16 11:14:04;;;;;;;25.23;15.45;;;10.90;61.60;;;;;;5122253;28;20014;-67
2022/03/16 11:16:33;;;;;;;19.27;12.75;;;11.00;61.50;;;;;;5122095;28;20193;-66
2022/03/16 11:19:04;;;;;;;19.15;13.07;;;11.00;61.40;;;;;;5122174;28;20027;-66
2022/03/16 11:21:55;;;;;;;21.08;14.50;;;11.00;61.20;;;;;;5122085;28;20026;-66
2022/03/16 11:24:26;;;;;;;16.67;12.38;;;11.10;60.80;;;;;;5121788;28;20243;-67
2022/03/16 11:27:09;;;;;;;17.90;12.55;;;11.10;60.70;;;;;;5121981;28;20072;-66
2022/03/16 11:30:06;;;;;;;21.17;13.93;;;11.10;60.80;;;;;;5121947;28;20086;-66
2022/03/16 11:32:42;;;;;;;22.80;14.02;;;11.00;61.20;;;;;;5121937;28;20030;-66
2022/03/16 11:35:12;;;;;;;20.67;14.15;;;11.10;61.40;;;;;;5121820;28;20358;-66
2022/03/16 11:37:43;;;;;;;19.08;13.35;;;11.00;60.80;;;;;;5121708;28;20024;-66
2022/03/16 11:40:21;;;;;;;20.92;13.75;;;11.00;61.30;;;;;;5121779;28;20184;-66
2022/03/16 11:43:16;;;;;;;22.70;13.88;;;11.00;61.40;;;;;;5121717;28;20031;-66
2022/03/16 11:45:48;;;;;;;17.90;13.05;;;11.00;61.20;;;;;;5119206;28;20111;-67
2022/03/16 11:48:31;;;;;;;23.38;14.18;;;11.00;61.40;;;;;;5121587;28;20203;-67
2022/03/16 11:56:36;;;;;;;18.33;13.50;;;11.00;61.40;;;;;;5121655;28;20051;-66
2022/03/16 11:59:10;;;;;;;18.30;13.77;;;11.00;61.20;;;;;;5121379;28;20083;-65
2022/03/16 12:01:39;;;;;;;17.45;12.82;;;11.00;62.00;;;;;;5121270;28;20047;-66
2022/03/16 12:04:19;;;;;;;18.98;13.38;;;11.00;61.50;;;;;;5121208;28;20339;-66
2022/03/16 12:07:21;;;;;;;19.27;14.00;;;11.00;61.30;;;;;;5121297;28;20034;-67
2022/03/16 12:09:56;;;;;;;19.13;13.27;;;11.00;61.20;;;;;;5078569;28;20340;-66
2022/03/16 12:15:11;;;;;;;20.35;13.23;;;11.10;61.40;;;;;;5121045;28;20081;-66
2022/03/16 12:17:41;;;;;;;17.70;12.80;;;11.10;61.40;;;;;;5120935;28;20514;-66
2022/03/16 12:20:09;;;;;;;18.50;12.63;;;11.10;61.20;;;;;;5121023;28;20038;-66
2022/03/16 12:22:47;;;;;;;17.07;12.93;;;11.20;61.50;;;;;;5120256;28;20035;-66
2022/03/16 12:25:27;;;;;;;17.30;12.33;;;11.10;61.80;;;;;;5120880;28;20031;-68
2022/03/16 12:31:01;;;;;;;15.27;11.38;;;11.10;61.20;;;;;;5120796;28;20354;-66
2022/03/16 12:33:31;;;;;;;13.13;10.20;;;11.20;60.60;;;;;;5119496;28;20020;-67
2022/03/16 12:36:04;;;;;;;18.13;11.60;;;11.20;60.60;;;;;;5120820;28;20093;-67
2022/03/16 12:38:32;;;;;;;17.75;12.45;;;11.30;60.50;;;;;;5119360;28;20092;-65
2022/03/16 12:43:53;;;;;;;16.05;11.48;;;11.20;60.30;;;;;;5120633;28;20073;-66
2022/03/16 12:46:33;;;;;;;15.73;11.35;;;11.20;60.40;;;;;;5120601;28;20012;-67
2022/03/16 12:49:04;;;;;;;15.02;10.63;;;11.20;60.10;;;;;;5120596;28;20030;-67
2022/03/16 12:51:39;;;;;;;15.60;10.73;;;11.20;61.00;;;;;;5120560;28;20073;-67
2022/03/16 12:54:05;;;;;;;15.90;10.88;;;11.20;60.30;;;;;;5120503;28;20051;-66
2022/03/16 12:56:36;;;;;;;18.77;12.30;;;11.20;60.20;;;;;;5120519;28;20083;-66
2022/03/16 12:59:02;;;;;;;15.02;10.55;;;11.20;60.50;;;;;;5120391;28;20095;-67